sensor_id;sensor_type;location;lat;lon;timestamp;pressure;altitude;pressure_sealevel;temperature;humidity
75594;BME280;64176;49.156;7.810;2022-12-10T00:00:53;98066.94;;;0.79;83.59
75594;BME280;64176;49.156;7.810;2022-12-10T00:03:37;98060.03;;;0.73;83.22
75594;BME280;64176;49.156;7.810;2022-12-10T00:06:26;98057.75;;;0.84;83.40
75594;BME280;64176;49.156;7.810;2022-12-10T00:09:14;98076.25;;;0.78;82.93
75594;BME280;64176;49.156;7.810;2022-12-10T00:12:00;98081.34;;;0.78;82.98
75594;BME280;64176;49.156;7.810;2022-12-10T00:14:50;98075.38;;;0.76;83.48
75594;BME280;64176;49.156;7.810;2022-12-10T00:17:36;98062.56;;;0.73;83.21
75594;BME280;64176;49.156;7.810;2022-12-10T00:20:20;98060.81;;;0.70;83.49
75594;BME280;64176;49.156;7.810;2022-12-10T00:23:07;98069.66;;;0.85;83.67
75594;BME280;64176;49.156;7.810;2022-12-10T00:25:51;98070.47;;;0.84;84.31
75594;BME280;64176;49.156;7.810;2022-12-10T00:28:39;98077.97;;;0.79;83.72
75594;BME280;64176;49.156;7.810;2022-12-10T00:31:43;98074.78;;;0.86;84.12
75594;BME280;64176;49.156;7.810;2022-12-10T00:34:28;98070.41;;;0.82;83.99
75594;BME280;64176;49.156;7.810;2022-12-10T00:37:17;98068.59;;;0.77;84.04
75594;BME280;64176;49.156;7.810;2022-12-10T00:40:01;98073.53;;;0.70;83.62
75594;BME280;64176;49.156;7.810;2022-12-10T00:42:47;98073.69;;;0.77;83.89
75594;BME280;64176;49.156;7.810;2022-12-10T00:45:38;98065.91;;;0.70;83.51
75594;BME280;64176;49.156;7.810;2022-12-10T00:48:25;98076.25;;;0.77;83.43
75594;BME280;64176;49.156;7.810;2022-12-10T00:51:17;98084.81;;;0.82;83.54
75594;BME280;64176;49.156;7.810;2022-12-10T00:54:02;98079.59;;;0.76;83.31
75594;BME280;64176;49.156;7.810;2022-12-10T00:56:51;98081.47;;;0.83;83.30
75594;BME280;64176;49.156;7.810;2022-12-10T00:59:35;98078.34;;;0.94;83.00
75594;BME280;64176;49.156;7.810;2022-12-10T01:02:20;98074.66;;;0.82;83.40
75594;BME280;64176;49.156;7.810;2022-12-10T01:05:04;98081.72;;;0.93;83.08
75594;BME280;64176;49.156;7.810;2022-12-10T01:07:51;98082.91;;;0.73;83.58
75594;BME280;64176;49.156;7.810;2022-12-10T01:10:37;98083.56;;;0.64;83.04
75594;BME280;64176;49.156;7.810;2022-12-10T01:13:24;98093.03;;;0.71;83.16
75594;BME280;64176;49.156;7.810;2022-12-10T01:16:17;98093.44;;;0.87;83.23
75594;BME280;64176;49.156;7.810;2022-12-10T01:19:02;98103.56;;;0.85;84.66
75594;BME280;64176;49.156;7.810;2022-12-10T01:21:54;98098.22;;;0.75;85.04
75594;BME280;64176;49.156;7.810;2022-12-10T01:24:40;98112.59;;;0.74;84.98
75594;BME280;64176;49.156;7.810;2022-12-10T01:27:24;98100.13;;;0.83;84.77
75594;BME280;64176;49.156;7.810;2022-12-10T01:30:10;98112.88;;;0.85;85.58
75594;BME280;64176;49.156;7.810;2022-12-10T01:32:54;98106.19;;;0.88;85.56
75594;BME280;64176;49.156;7.810;2022-12-10T01:35:41;98105.06;;;0.77;85.64
75594;BME280;64176;49.156;7.810;2022-12-10T01:38:27;98104.47;;;0.87;85.68
75594;BME280;64176;49.156;7.810;2022-12-10T01:41:27;98112.97;;;0.88;85.54
75594;BME280;64176;49.156;7.810;2022-12-10T01:47:02;98102.41;;;0.72;86.61
75594;BME280;64176;49.156;7.810;2022-12-10T01:49:48;98104.19;;;0.77;86.68
75594;BME280;64176;49.156;7.810;2022-12-10T01:52:32;98115.03;;;0.69;85.97
75594;BME280;64176;49.156;7.810;2022-12-10T01:55:38;98120.88;;;0.65;86.51
75594;BME280;64176;49.156;7.810;2022-12-10T01:58:25;98115.94;;;0.71;86.45
75594;BME280;64176;49.156;7.810;2022-12-10T02:04:40;98123.47;;;0.68;86.69
75594;BME280;64176;49.156;7.810;2022-12-10T02:07:49;98126.25;;;0.78;86.45
75594;BME280;64176;49.156;7.810;2022-12-10T02:10:58;98119.06;;;0.61;87.10
75594;BME280;64176;49.156;7.810;2022-12-10T02:13:55;98123.13;;;0.55;87.22
75594;BME280;64176;49.156;7.810;2022-12-10T02:16:49;98124.31;;;0.69;86.90
75594;BME280;64176;49.156;7.810;2022-12-10T02:22:34;98123.47;;;0.37;87.69
75594;BME280;64176;49.156;7.810;2022-12-10T02:25:48;98124.34;;;0.38;87.48
75594;BME280;64176;49.156;7.810;2022-12-10T02:31:39;98121.09;;;0.42;86.93
75594;BME280;64176;49.156;7.810;2022-12-10T02:34:27;98113.28;;;0.35;87.23
75594;BME280;64176;49.156;7.810;2022-12-10T02:37:22;98129.94;;;0.57;87.11
75594;BME280;64176;49.156;7.810;2022-12-10T02:40:29;98113.66;;;0.49;86.43
75594;BME280;64176;49.156;7.810;2022-12-10T02:43:20;98120.31;;;0.46;85.82
75594;BME280;64176;49.156;7.810;2022-12-10T02:46:05;98120.22;;;0.41;86.19
75594;BME280;64176;49.156;7.810;2022-12-10T02:48:53;98114.19;;;0.38;86.23
75594;BME280;64176;49.156;7.810;2022-12-10T02:51:40;98113.56;;;0.46;85.40
75594;BME280;64176;49.156;7.810;2022-12-10T02:54:48;98110.97;;;0.45;84.58
75594;BME280;64176;49.156;7.810;2022-12-10T02:57:58;98112.91;;;0.53;85.71
75594;BME280;64176;49.156;7.810;2022-12-10T03:01:10;98104.56;;;0.59;85.65
75594;BME280;64176;49.156;7.810;2022-12-10T03:04:10;98106.38;;;0.63;85.61
75594;BME280;64176;49.156;7.810;2022-12-10T03:07:01;98111.78;;;0.75;85.13
75594;BME280;64176;49.156;7.810;2022-12-10T03:09:53;98109.50;;;0.53;86.39
75594;BME280;64176;49.156;7.810;2022-12-10T03:12:48;98103.75;;;0.60;86.54
75594;BME280;64176;49.156;7.810;2022-12-10T03:15:39;98107.16;;;0.60;86.83
75594;BME280;64176;49.156;7.810;2022-12-10T03:18:25;98107.28;;;0.65;86.92
75594;BME280;64176;49.156;7.810;2022-12-10T03:21:15;98105.88;;;0.45;87.15
75594;BME280;64176;49.156;7.810;2022-12-10T03:24:00;98104.44;;;0.21;87.69
75594;BME280;64176;49.156;7.810;2022-12-10T03:26:49;98108.31;;;0.40;87.50
75594;BME280;64176;49.156;7.810;2022-12-10T03:29:39;98112.16;;;0.57;86.72
75594;BME280;64176;49.156;7.810;2022-12-10T03:32:28;98108.75;;;0.57;86.50
75594;BME280;64176;49.156;7.810;2022-12-10T03:35:20;98112.63;;;0.43;86.40
75594;BME280;64176;49.156;7.810;2022-12-10T03:38:09;98105.06;;;0.44;86.88
75594;BME280;64176;49.156;7.810;2022-12-10T03:40:53;98115.75;;;0.64;85.91
75594;BME280;64176;49.156;7.810;2022-12-10T03:43:56;98116.56;;;0.63;85.53
75594;BME280;64176;49.156;7.810;2022-12-10T03:46:43;98120.88;;;0.65;86.72
75594;BME280;64176;49.156;7.810;2022-12-10T03:49:30;98123.09;;;0.53;86.94
75594;BME280;64176;49.156;7.810;2022-12-10T03:52:16;98123.16;;;0.56;85.96
75594;BME280;64176;49.156;7.810;2022-12-10T03:55:03;98118.97;;;0.58;85.33
75594;BME280;64176;49.156;7.810;2022-12-10T03:57:47;98132.63;;;0.62;85.28
75594;BME280;64176;49.156;7.810;2022-12-10T04:00:32;98124.59;;;0.47;84.82
75594;BME280;64176;49.156;7.810;2022-12-10T04:03:16;98136.47;;;0.48;84.85
75594;BME280;64176;49.156;7.810;2022-12-10T04:06:02;98134.13;;;0.55;84.89
75594;BME280;64176;49.156;7.810;2022-12-10T04:08:49;98133.31;;;0.55;84.47
75594;BME280;64176;49.156;7.810;2022-12-10T04:11:38;98134.78;;;0.48;84.55
75594;BME280;64176;49.156;7.810;2022-12-10T04:14:22;98120.22;;;0.41;84.79
75594;BME280;64176;49.156;7.810;2022-12-10T04:17:25;98138.09;;;0.46;84.72
75594;BME280;64176;49.156;7.810;2022-12-10T04:20:09;98136.47;;;0.48;84.58
75594;BME280;64176;49.156;7.810;2022-12-10T04:23:16;98132.16;;;0.45;84.24
75594;BME280;64176;49.156;7.810;2022-12-10T04:26:19;98142.22;;;0.41;84.94
75594;BME280;64176;49.156;7.810;2022-12-10T04:29:29;98137.06;;;0.38;86.15
75594;BME280;64176;49.156;7.810;2022-12-10T04:32:19;98140.31;;;0.33;85.92
75594;BME280;64176;49.156;7.810;2022-12-10T04:35:07;98141.28;;;0.37;85.56
75594;BME280;64176;49.156;7.810;2022-12-10T04:37:51;98149.06;;;0.43;86.12
75594;BME280;64176;49.156;7.810;2022-12-10T04:40:40;98141.47;;;0.43;85.16
75594;BME280;64176;49.156;7.810;2022-12-10T04:43:26;98146.63;;;0.48;84.77
75594;BME280;64176;49.156;7.810;2022-12-10T04:46:11;98148.94;;;0.39;84.38
75594;BME280;64176;49.156;7.810;2022-12-10T04:49:00;98154.94;;;0.41;84.13
75594;BME280;64176;49.156;7.810;2022-12-10T04:51:44;98150.63;;;0.38;84.31
75594;BME280;64176;49.156;7.810;2022-12-10T04:54:29;98148.06;;;0.38;84.28
75594;BME280;64176;49.156;7.810;2022-12-10T04:57:13;98151.47;;;0.39;83.80
75594;BME280;64176;49.156;7.810;2022-12-10T05:00:04;98149.22;;;0.49;83.63
75594;BME280;64176;49.156;7.810;2022-12-10T05:02:51;98149.84;;;0.41;83.48
75594;BME280;64176;49.156;7.810;2022-12-10T05:05:35;98137.78;;;0.33;83.63
75594;BME280;64176;49.156;7.810;2022-12-10T05:08:19;98151.53;;;0.40;84.33
75594;BME280;64176;49.156;7.810;2022-12-10T05:11:07;98148.91;;;0.37;84.10
75594;BME280;64176;49.156;7.810;2022-12-10T05:13:56;98151.31;;;0.32;83.83
75594;BME280;64176;49.156;7.810;2022-12-10T05:16:41;98154.63;;;0.30;83.84
75594;BME280;64176;49.156;7.810;2022-12-10T05:19:25;98158.91;;;0.31;84.21
75594;BME280;64176;49.156;7.810;2022-12-10T05:22:12;98154.63;;;0.30;84.06
75594;BME280;64176;49.156;7.810;2022-12-10T05:25:14;98166.22;;;0.50;83.57
75594;BME280;64176;49.156;7.810;2022-12-10T05:28:01;98160.72;;;0.36;83.80
75594;BME280;64176;49.156;7.810;2022-12-10T05:30:48;98158.25;;;0.38;83.49
75594;BME280;64176;49.156;7.810;2022-12-10T05:33:35;98157.47;;;0.41;83.40
75594;BME280;64176;49.156;7.810;2022-12-10T05:36:21;98167.63;;;0.41;83.72
75594;BME280;64176;49.156;7.810;2022-12-10T05:39:05;98160.34;;;0.53;83.89
75594;BME280;64176;49.156;7.810;2022-12-10T05:41:49;98166.44;;;0.28;83.29
75594;BME280;64176;49.156;7.810;2022-12-10T05:44:38;98170.91;;;0.36;83.76
75594;BME280;64176;49.156;7.810;2022-12-10T05:47:22;98169.41;;;0.43;83.73
75594;BME280;64176;49.156;7.810;2022-12-10T05:50:09;98172.56;;;0.36;83.80
75594;BME280;64176;49.156;7.810;2022-12-10T05:52:53;98176.63;;;0.29;83.51
75594;BME280;64176;49.156;7.810;2022-12-10T05:55:38;98166.47;;;0.29;83.98
75594;BME280;64176;49.156;7.810;2022-12-10T05:58:22;98174.81;;;0.25;83.27
75594;BME280;64176;49.156;7.810;2022-12-10T06:01:11;98178.28;;;0.27;83.55
75594;BME280;64176;49.156;7.810;2022-12-10T06:03:59;98185.78;;;0.24;83.41
75594;BME280;64176;49.156;7.810;2022-12-10T06:06:44;98175.00;;;0.31;83.41
75594;BME280;64176;49.156;7.810;2022-12-10T06:09:30;98183.34;;;0.27;82.81
75594;BME280;64176;49.156;7.810;2022-12-10T06:12:14;98194.34;;;0.26;83.27
75594;BME280;64176;49.156;7.810;2022-12-10T06:14:57;98201.28;;;0.32;83.37
75594;BME280;64176;49.156;7.810;2022-12-10T06:17:44;98206.44;;;0.35;83.06
75594;BME280;64176;49.156;7.810;2022-12-10T06:20:28;98210.66;;;0.34;83.58
75594;BME280;64176;49.156;7.810;2022-12-10T06:23:11;98198.81;;;0.35;83.30
75594;BME280;64176;49.156;7.810;2022-12-10T06:25:55;98211.84;;;0.47;82.46
75594;BME280;64176;49.156;7.810;2022-12-10T06:28:47;98210.94;;;0.45;82.56
75594;BME280;64176;49.156;7.810;2022-12-10T06:31:31;98208.63;;;0.23;82.64
75594;BME280;64176;49.156;7.810;2022-12-10T06:34:15;98210.28;;;0.22;82.54
75594;BME280;64176;49.156;7.810;2022-12-10T06:36:59;98221.31;;;0.23;82.59
75594;BME280;64176;49.156;7.810;2022-12-10T06:39:43;98232.06;;;0.43;82.38
75594;BME280;64176;49.156;7.810;2022-12-10T06:42:27;98230.09;;;0.34;82.06
75594;BME280;64176;49.156;7.810;2022-12-10T06:45:11;98222.41;;;0.31;82.33
75594;BME280;64176;49.156;7.810;2022-12-10T06:47:55;98227.06;;;0.46;82.53
75594;BME280;64176;49.156;7.810;2022-12-10T06:50:38;98244.00;;;0.45;82.07
75594;BME280;64176;49.156;7.810;2022-12-10T06:53:25;98242.00;;;0.35;82.21
75594;BME280;64176;49.156;7.810;2022-12-10T06:56:14;98240.13;;;0.28;82.43
75594;BME280;64176;49.156;7.810;2022-12-10T06:58:59;98237.41;;;0.22;82.43
75594;BME280;64176;49.156;7.810;2022-12-10T07:01:46;98244.22;;;0.24;82.33
75594;BME280;64176;49.156;7.810;2022-12-10T07:04:32;98253.03;;;0.35;81.75
75594;BME280;64176;49.156;7.810;2022-12-10T07:07:21;98253.72;;;0.30;82.40
75594;BME280;64176;49.156;7.810;2022-12-10T07:10:05;98242.81;;;0.34;82.41
75594;BME280;64176;49.156;7.810;2022-12-10T07:12:49;98248.81;;;0.36;82.19
75594;BME280;64176;49.156;7.810;2022-12-10T07:15:35;98256.97;;;0.54;81.77
75594;BME280;64176;49.156;7.810;2022-12-10T07:18:22;98240.78;;;0.22;82.22
75594;BME280;64176;49.156;7.810;2022-12-10T07:21:18;98265.97;;;0.43;82.36
75594;BME280;64176;49.156;7.810;2022-12-10T07:24:09;98264.00;;;0.34;81.92
75594;BME280;64176;49.156;7.810;2022-12-10T07:26:53;98259.44;;;0.51;82.15
75594;BME280;64176;49.156;7.810;2022-12-10T07:29:40;98269.81;;;0.59;81.96
75594;BME280;64176;49.156;7.810;2022-12-10T07:32:27;98273.91;;;0.54;81.88
75594;BME280;64176;49.156;7.810;2022-12-10T07:35:16;98268.00;;;0.55;81.69
75594;BME280;64176;49.156;7.810;2022-12-10T07:38:02;98267.31;;;0.60;81.55
75594;BME280;64176;49.156;7.810;2022-12-10T07:40:49;98280.28;;;0.69;81.67
75594;BME280;64176;49.156;7.810;2022-12-10T07:43:39;98285.25;;;0.66;81.60
75594;BME280;64176;49.156;7.810;2022-12-10T07:46:28;98282.66;;;0.63;81.58
75594;BME280;64176;49.156;7.810;2022-12-10T07:49:13;98278.13;;;0.53;81.97
75594;BME280;64176;49.156;7.810;2022-12-10T07:51:59;98288.69;;;0.67;82.01
75594;BME280;64176;49.156;7.810;2022-12-10T07:54:46;98286.13;;;0.65;81.85
75594;BME280;64176;49.156;7.810;2022-12-10T07:57:32;98287.69;;;0.62;82.04
75594;BME280;64176;49.156;7.810;2022-12-10T08:00:18;98291.25;;;0.68;81.47
75594;BME280;64176;49.156;7.810;2022-12-10T08:03:05;98291.31;;;0.70;81.25
75594;BME280;64176;49.156;7.810;2022-12-10T08:06:07;98295.59;;;0.71;81.56
75594;BME280;64176;49.156;7.810;2022-12-10T08:08:52;98297.09;;;0.64;81.33
75594;BME280;64176;49.156;7.810;2022-12-10T08:11:38;98298.81;;;0.65;81.04
75594;BME280;64176;49.156;7.810;2022-12-10T08:14:22;98290.19;;;0.60;81.12
75594;BME280;64176;49.156;7.810;2022-12-10T08:17:06;98296.09;;;0.59;81.03
75594;BME280;64176;49.156;7.810;2022-12-10T08:19:51;98302.94;;;0.62;82.14
75594;BME280;64176;49.156;7.810;2022-12-10T08:22:34;98313.53;;;0.76;82.09
75594;BME280;64176;49.156;7.810;2022-12-10T08:25:19;98301.88;;;0.55;81.80
75594;BME280;64176;49.156;7.810;2022-12-10T08:28:08;98299.28;;;0.52;81.20
75594;BME280;64176;49.156;7.810;2022-12-10T08:30:57;98303.00;;;0.63;81.28
75594;BME280;64176;49.156;7.810;2022-12-10T08:33:46;98301.28;;;0.62;81.13
75594;BME280;64176;49.156;7.810;2022-12-10T08:36:30;98319.47;;;0.76;81.29
75594;BME280;64176;49.156;7.810;2022-12-10T08:39:17;98322.94;;;0.80;81.19
75594;BME280;64176;49.156;7.810;2022-12-10T08:42:01;98324.88;;;0.87;80.73
75594;BME280;64176;49.156;7.810;2022-12-10T08:44:44;98313.44;;;0.72;80.84
75594;BME280;64176;49.156;7.810;2022-12-10T08:47:29;98328.81;;;0.77;81.20
75594;BME280;64176;49.156;7.810;2022-12-10T08:50:15;98329.03;;;0.85;81.19
75594;BME280;64176;49.156;7.810;2022-12-10T08:53:02;98333.13;;;0.80;81.54
75594;BME280;64176;49.156;7.810;2022-12-10T08:55:49;98335.91;;;0.89;81.63
75594;BME280;64176;49.156;7.810;2022-12-10T08:58:38;98331.53;;;0.83;81.70
75594;BME280;64176;49.156;7.810;2022-12-10T09:01:27;98337.38;;;0.81;81.98
75594;BME280;64176;49.156;7.810;2022-12-10T09:04:13;98333.06;;;0.78;81.74
75594;BME280;64176;49.156;7.810;2022-12-10T09:07:02;98337.38;;;0.81;81.42
75594;BME280;64176;49.156;7.810;2022-12-10T09:09:47;98331.84;;;0.94;81.74
75594;BME280;64176;49.156;7.810;2022-12-10T09:12:33;98341.34;;;1.01;81.51
75594;BME280;64176;49.156;7.810;2022-12-10T09:15:20;98345.16;;;1.15;81.21
75594;BME280;64176;49.156;7.810;2022-12-10T09:18:04;98339.75;;;1.04;81.37
75594;BME280;64176;49.156;7.810;2022-12-10T09:20:51;98347.50;;;1.07;81.78
75594;BME280;64176;49.156;7.810;2022-12-10T09:23:35;98341.09;;;0.92;81.13
75594;BME280;64176;49.156;7.810;2022-12-10T09:26:19;98351.97;;;1.16;80.93
75594;BME280;64176;49.156;7.810;2022-12-10T09:29:06;98342.00;;;0.94;80.29
75594;BME280;64176;49.156;7.810;2022-12-10T09:31:52;98354.53;;;0.86;81.13
75594;BME280;64176;49.156;7.810;2022-12-10T09:34:36;98356.81;;;1.07;80.66
75594;BME280;64176;49.156;7.810;2022-12-10T09:37:20;98354.25;;;1.07;80.39
75594;BME280;64176;49.156;7.810;2022-12-10T09:40:04;98364.47;;;1.08;80.69
75594;BME280;64176;49.156;7.810;2022-12-10T09:43:46;98352.63;;;1.09;80.57
75594;BME280;64176;49.156;7.810;2022-12-10T09:46:16;98363.88;;;1.17;80.97
75594;BME280;64176;49.156;7.810;2022-12-10T09:49:16;98357.97;;;1.18;81.07
75594;BME280;64176;49.156;7.810;2022-12-10T09:52:10;98367.44;;;1.24;80.81
75594;BME280;64176;49.156;7.810;2022-12-10T09:55:00;98345.25;;;1.18;80.57
75594;BME280;64176;49.156;7.810;2022-12-10T09:57:49;98365.75;;;1.24;81.03
75594;BME280;64176;49.156;7.810;2022-12-10T10:00:38;98360.84;;;1.30;80.44
75594;BME280;64176;49.156;7.810;2022-12-10T10:03:26;98371.56;;;1.19;80.69
75594;BME280;64176;49.156;7.810;2022-12-10T10:06:12;98367.13;;;1.13;79.37
75594;BME280;64176;49.156;7.810;2022-12-10T10:09:02;98362.97;;;1.15;79.44
75594;BME280;64176;49.156;7.810;2022-12-10T10:11:48;98369.97;;;1.24;79.37
75594;BME280;64176;49.156;7.810;2022-12-10T10:14:33;98364.31;;;1.34;79.55
75594;BME280;64176;49.156;7.810;2022-12-10T10:17:31;98368.44;;;1.29;78.85
75594;BME280;64176;49.156;7.810;2022-12-10T10:20:20;98366.84;;;1.32;78.54
75594;BME280;64176;49.156;7.810;2022-12-10T10:23:05;98363.41;;;1.30;78.34
75594;BME280;64176;49.156;7.810;2022-12-10T10:25:52;98367.34;;;1.51;78.63
75594;BME280;64176;49.156;7.810;2022-12-10T10:28:39;98363.22;;;1.56;77.24
75594;BME280;64176;49.156;7.810;2022-12-10T10:31:30;98360.47;;;1.48;76.49
75594;BME280;64176;49.156;7.810;2022-12-10T10:34:19;98361.81;;;1.35;76.83
75594;BME280;64176;49.156;7.810;2022-12-10T10:37:04;98354.91;;;1.30;76.77
75594;BME280;64176;49.156;7.810;2022-12-10T10:39:51;98362.56;;;1.31;76.27
75594;BME280;64176;49.156;7.810;2022-12-10T10:42:42;98365.69;;;1.21;75.67
75594;BME280;64176;49.156;7.810;2022-12-10T10:45:38;98367.19;;;1.15;75.62
75594;BME280;64176;49.156;7.810;2022-12-10T10:48:26;98376.91;;;1.28;75.41
75594;BME280;64176;49.156;7.810;2022-12-10T10:53:55;98361.34;;;1.49;75.75
75594;BME280;64176;49.156;7.810;2022-12-10T10:56:43;98369.09;;;1.53;75.37
75594;BME280;64176;49.156;7.810;2022-12-10T10:59:34;98361.91;;;1.38;74.84
75594;BME280;64176;49.156;7.810;2022-12-10T11:02:20;98371.56;;;1.50;75.33
75594;BME280;64176;49.156;7.810;2022-12-10T11:05:19;98359.47;;;1.74;74.68
75594;BME280;64176;49.156;7.810;2022-12-10T11:08:12;98368.97;;;1.49;75.25
75594;BME280;64176;49.156;7.810;2022-12-10T11:11:05;98377.94;;;1.67;75.76
75594;BME280;64176;49.156;7.810;2022-12-10T11:13:49;98371.22;;;1.69;75.53
75594;BME280;64176;49.156;7.810;2022-12-10T11:16:33;98373.13;;;1.76;75.33
75594;BME280;64176;49.156;7.810;2022-12-10T11:19:21;98371.38;;;1.75;74.94
75594;BME280;64176;49.156;7.810;2022-12-10T11:22:35;98378.13;;;1.73;74.52
75594;BME280;64176;49.156;7.810;2022-12-10T11:28:40;98367.91;;;1.72;74.70
75594;BME280;64176;49.156;7.810;2022-12-10T11:31:51;98372.94;;;1.70;75.03
75594;BME280;64176;49.156;7.810;2022-12-10T11:50:52;98366.06;;;1.68;75.09
75594;BME280;64176;49.156;7.810;2022-12-10T11:54:00;98372.78;;;1.64;74.61
75594;BME280;64176;49.156;7.810;2022-12-10T11:56:53;98379.56;;;1.32;75.12
75594;BME280;64176;49.156;7.810;2022-12-10T12:15:05;98392.78;;;1.51;75.98
75594;BME280;64176;49.156;7.810;2022-12-10T12:21:10;98398.63;;;1.46;75.41
75594;BME280;64176;49.156;7.810;2022-12-10T12:24:01;98395.28;;;1.18;76.36
75594;BME280;64176;49.156;7.810;2022-12-10T12:26:54;98406.63;;;1.29;76.67
75594;BME280;64176;49.156;7.810;2022-12-10T12:29:54;98415.69;;;1.19;76.11
75594;BME280;64176;49.156;7.810;2022-12-10T12:36:04;98403.56;;;1.12;76.51
75594;BME280;64176;49.156;7.810;2022-12-10T12:39:03;98407.84;;;1.13;76.17
75594;BME280;64176;49.156;7.810;2022-12-10T12:41:57;98409.88;;;1.25;75.95
75594;BME280;64176;49.156;7.810;2022-12-10T12:44:59;98410.13;;;1.32;75.34
75594;BME280;64176;49.156;7.810;2022-12-10T12:48:02;98414.94;;;1.23;75.83
75594;BME280;64176;49.156;7.810;2022-12-10T12:51:03;98410.13;;;1.34;75.88
75594;BME280;64176;49.156;7.810;2022-12-10T12:53:51;98409.84;;;1.23;75.26
75594;BME280;64176;49.156;7.810;2022-12-10T12:56:48;98418.59;;;1.33;74.48
75594;BME280;64176;49.156;7.810;2022-12-10T12:59:58;98425.94;;;1.52;73.88
75594;BME280;64176;49.156;7.810;2022-12-10T13:05:55;98408.47;;;1.66;73.19
75594;BME280;64176;49.156;7.810;2022-12-10T13:17:39;98436.69;;;1.73;72.73
75594;BME280;64176;49.156;7.810;2022-12-10T13:26:29;98435.25;;;1.83;73.47
75594;BME280;64176;49.156;7.810;2022-12-10T13:29:26;98445.53;;;1.86;72.95
75594;BME280;64176;49.156;7.810;2022-12-10T13:38:05;98454.47;;;1.40;73.58
75594;BME280;64176;49.156;7.810;2022-12-10T13:41:01;98462.88;;;1.38;72.85
75594;BME280;64176;49.156;7.810;2022-12-10T13:44:26;98462.31;;;1.48;73.07
75594;BME280;64176;49.156;7.810;2022-12-10T13:50:19;98463.13;;;1.78;72.20
75594;BME280;64176;49.156;7.810;2022-12-10T13:59:22;98478.56;;;1.83;71.74
75594;BME280;64176;49.156;7.810;2022-12-10T14:07:57;98474.81;;;1.70;71.73
75594;BME280;64176;49.156;7.810;2022-12-10T14:10:45;98491.09;;;1.75;71.78
75594;BME280;64176;49.156;7.810;2022-12-10T14:13:36;98489.53;;;1.51;71.44
75594;BME280;64176;49.156;7.810;2022-12-10T14:16:28;98495.19;;;1.40;71.89
75594;BME280;64176;49.156;7.810;2022-12-10T14:19:15;98484.44;;;1.21;71.56
75594;BME280;64176;49.156;7.810;2022-12-10T14:22:07;98498.69;;;1.16;72.10
75594;BME280;64176;49.156;7.810;2022-12-10T14:24:52;98512.50;;;1.24;72.41
75594;BME280;64176;49.156;7.810;2022-12-10T14:27:36;98510.59;;;1.17;72.31
75594;BME280;64176;49.156;7.810;2022-12-10T14:30:24;98510.06;;;1.00;71.68
75594;BME280;64176;49.156;7.810;2022-12-10T14:33:15;98524.28;;;0.93;72.05
75594;BME280;64176;49.156;7.810;2022-12-10T14:36:02;98516.41;;;0.86;72.02
75594;BME280;64176;49.156;7.810;2022-12-10T14:38:46;98508.47;;;1.03;72.25
75594;BME280;64176;49.156;7.810;2022-12-10T14:41:32;98519.41;;;1.01;71.97
75594;BME280;64176;49.156;7.810;2022-12-10T14:44:18;98519.34;;;0.98;72.09
75594;BME280;64176;49.156;7.810;2022-12-10T14:47:05;98531.34;;;1.02;72.15
75594;BME280;64176;49.156;7.810;2022-12-10T14:49:53;98520.94;;;0.94;71.96
75594;BME280;64176;49.156;7.810;2022-12-10T14:52:45;98525.84;;;0.90;72.16
75594;BME280;64176;49.156;7.810;2022-12-10T14:55:33;98525.84;;;0.88;71.51
75594;BME280;64176;49.156;7.810;2022-12-10T14:58:34;98535.22;;;0.91;71.94
75594;BME280;64176;49.156;7.810;2022-12-10T15:01:33;98539.00;;;1.03;72.57
75594;BME280;64176;49.156;7.810;2022-12-10T15:04:20;98542.78;;;0.88;72.38
75594;BME280;64176;49.156;7.810;2022-12-10T15:07:07;98524.44;;;0.98;72.37
75594;BME280;64176;49.156;7.810;2022-12-10T15:09:55;98541.44;;;0.99;72.13
75594;BME280;64176;49.156;7.810;2022-12-10T15:12:45;98539.97;;;1.07;72.50
75594;BME280;64176;49.156;7.810;2022-12-10T15:15:34;98541.50;;;1.02;72.50
75594;BME280;64176;49.156;7.810;2022-12-10T15:21:21;98545.00;;;0.79;74.22
75594;BME280;64176;49.156;7.810;2022-12-10T15:27:14;98550.88;;;0.76;74.08
75594;BME280;64176;49.156;7.810;2022-12-10T15:29:58;98554.78;;;0.66;74.88
75594;BME280;64176;49.156;7.810;2022-12-10T15:32:47;98538.06;;;0.48;76.01
75594;BME280;64176;49.156;7.810;2022-12-10T15:35:35;98555.19;;;0.28;77.34
75594;BME280;64176;49.156;7.810;2022-12-10T15:38:25;98559.63;;;0.35;78.01
75594;BME280;64176;49.156;7.810;2022-12-10T15:41:45;98564.03;;;0.15;78.33
75594;BME280;64176;49.156;7.810;2022-12-10T15:47:20;98562.09;;;-0.16;79.92
75594;BME280;64176;49.156;7.810;2022-12-10T15:50:08;98549.88;;;-0.26;79.53
75594;BME280;64176;49.156;7.810;2022-12-10T15:52:52;98574.47;;;-0.25;80.45
75594;BME280;64176;49.156;7.810;2022-12-10T15:55:39;98570.53;;;-0.17;80.14
75594;BME280;64176;49.156;7.810;2022-12-10T15:58:23;98561.94;;;-0.43;80.57
75594;BME280;64176;49.156;7.810;2022-12-10T16:01:11;98567.72;;;-0.47;80.84
75594;BME280;64176;49.156;7.810;2022-12-10T16:03:56;98570.59;;;-0.38;80.64
75594;BME280;64176;49.156;7.810;2022-12-10T16:06:40;98595.25;;;-0.35;80.96
75594;BME280;64176;49.156;7.810;2022-12-10T16:09:25;98594.13;;;-0.42;81.41
75594;BME280;64176;49.156;7.810;2022-12-10T16:12:15;98604.47;;;-0.59;81.98
75594;BME280;64176;49.156;7.810;2022-12-10T16:15:04;98601.75;;;-0.42;81.15
75594;BME280;64176;49.156;7.810;2022-12-10T16:17:49;98596.59;;;-0.43;80.90
75594;BME280;64176;49.156;7.810;2022-12-10T16:20:33;98610.28;;;-0.62;81.23
75594;BME280;64176;49.156;7.810;2022-12-10T16:23:20;98613.69;;;-0.61;82.11
75594;BME280;64176;49.156;7.810;2022-12-10T16:26:19;98611.59;;;-0.71;82.01
75594;BME280;64176;49.156;7.810;2022-12-10T16:29:07;98617.81;;;-0.63;82.52
75594;BME280;64176;49.156;7.810;2022-12-10T16:31:51;98606.72;;;-0.67;82.43
75594;BME280;64176;49.156;7.810;2022-12-10T16:34:40;98612.13;;;-0.58;81.95
75594;BME280;64176;49.156;7.810;2022-12-10T16:37:24;98619.69;;;-0.59;81.96
75594;BME280;64176;49.156;7.810;2022-12-10T16:40:15;98624.47;;;-0.67;81.95
75594;BME280;64176;49.156;7.810;2022-12-10T16:42:59;98623.34;;;-0.74;81.94
75594;BME280;64176;49.156;7.810;2022-12-10T16:45:43;98620.44;;;-0.83;82.50
75594;BME280;64176;49.156;7.810;2022-12-10T16:48:30;98618.97;;;-0.78;82.44
75594;BME280;64176;49.156;7.810;2022-12-10T16:51:22;98620.53;;;-0.81;82.13